createdAt,value
2019-05-30T00:02:15.607Z,101933.09
2019-05-30T00:07:37.333Z,101934.75
2019-05-30T00:12:59.020Z,101924.92
2019-05-30T00:18:20.741Z,101917.77
2019-05-30T00:23:42.488Z,101919.50
2019-05-30T00:29:04.591Z,101915.92
2019-05-30T00:34:26.306Z,101914.09
2019-05-30T00:39:47.992Z,101910.58
2019-05-30T00:45:20.430Z,101909.73
2019-05-30T00:50:34.254Z,101919.68
2019-05-30T00:55:56.675Z,101921.61
2019-05-30T01:01:18.637Z,101922.69
2019-05-30T01:06:40.355Z,101926.22
2019-05-30T01:12:03.093Z,101927.10
2019-05-30T01:17:25.139Z,101920.23
2019-05-30T01:22:46.809Z,101923.88
2019-05-30T01:28:08.487Z,101929.20
2019-05-30T01:33:30.167Z,101926.55
2019-05-30T01:38:51.900Z,101928.31
2019-05-30T01:44:13.618Z,101936.27
2019-05-30T01:49:35.350Z,101929.20
2019-05-30T01:54:58.410Z,101937.99
2019-05-30T02:00:22.154Z,101930.06
2019-05-30T02:05:44.081Z,101936.23
2019-05-30T02:11:05.824Z,101925.52
2019-05-30T02:16:27.559Z,101931.72
2019-05-30T02:21:49.433Z,101930.00
2019-05-30T02:27:11.188Z,101924.66
2019-05-30T02:32:33.284Z,101931.79
2019-05-30T02:37:55.027Z,101925.59
2019-05-30T02:43:16.998Z,101934.47
2019-05-30T02:48:57.179Z,101936.16
2019-05-30T02:54:03.909Z,101944.90
2019-05-30T02:59:25.646Z,101945.77
2019-05-30T03:04:47.414Z,101957.36
2019-05-30T03:10:14.596Z,101950.27
2019-05-30T03:15:34.605Z,101962.62
2019-05-30T03:20:56.414Z,101957.37
2019-05-30T03:26:18.144Z,101965.34
2019-05-30T03:31:42.958Z,101968.94
2019-05-30T03:37:08.700Z,101961.02
2019-05-30T03:42:28.199Z,101962.80
2019-05-30T03:47:53.884Z,101956.63
2019-05-30T03:53:16.484Z,101961.91
2019-05-30T03:58:55.060Z,101968.11
2019-05-30T04:04:21.617Z,101967.23
2019-05-30T04:09:45.644Z,101968.98
2019-05-30T04:15:17.154Z,101972.41
2019-05-30T04:20:38.611Z,101982.00
2019-05-30T04:26:00.984Z,101988.03
2019-05-30T04:31:23.049Z,101989.50
2019-05-30T04:36:44.751Z,101994.61
2019-05-30T04:42:06.461Z,101997.81
2019-05-30T04:47:28.201Z,101987.76
2019-05-30T04:52:49.921Z,101998.95
2019-05-30T04:58:13.426Z,101994.03
2019-05-30T05:03:45.131Z,101999.77
2019-05-30T05:08:58.620Z,101994.66
2019-05-30T05:14:20.600Z,101994.12
2019-05-30T05:19:42.468Z,102003.42
2019-05-30T05:25:04.140Z,102013.80
2019-05-30T05:30:26.600Z,102022.47
2019-05-30T05:35:48.387Z,102029.16
2019-05-30T05:41:10.244Z,102036.75
2019-05-30T05:46:32.138Z,102024.58
2019-05-30T05:51:53.820Z,102028.90
2019-05-30T05:57:16.669Z,102033.80
2019-05-30T06:02:38.637Z,102042.23
2019-05-30T06:08:00.342Z,102041.50
2019-05-30T06:13:23.002Z,102041.17
2019-05-30T06:18:44.912Z,102035.32
2019-05-30T06:24:06.593Z,102041.20
2019-05-30T06:29:28.446Z,102032.09
2019-05-30T06:34:50.603Z,102028.77
2019-05-30T06:40:12.337Z,102034.81
2019-05-30T06:45:34.588Z,102034.94
2019-05-30T06:50:56.315Z,102040.09
2019-05-30T06:56:17.999Z,102036.14
2019-05-30T07:01:39.688Z,102045.28
2019-05-30T07:07:01.523Z,102028.48
2019-05-30T07:12:23.535Z,102038.27
2019-05-30T07:17:46.087Z,102036.41
2019-05-30T07:23:07.790Z,102033.98
2019-05-30T07:28:29.936Z,102044.36
2019-05-30T07:33:51.933Z,102029.42
2019-05-30T07:39:14.120Z,102018.31
2019-05-30T07:44:35.846Z,102012.01
2019-05-30T07:49:57.590Z,102020.37
2019-05-30T07:55:21.160Z,102023.67
2019-05-30T08:00:43.172Z,102022.14
2019-05-30T08:06:04.903Z,102019.17
2019-05-30T08:11:26.861Z,102011.11
2019-05-30T08:16:48.629Z,102007.92
2019-05-30T08:22:10.369Z,102000.89
2019-05-30T08:27:32.411Z,101994.91
2019-05-30T08:32:54.404Z,101992.05
2019-05-30T08:38:16.419Z,101993.37
2019-05-30T08:43:38.274Z,101992.73
2019-05-30T08:49:01.840Z,101986.09
2019-05-30T08:54:23.567Z,101982.92
2019-05-30T08:59:45.535Z,101977.57
2019-05-30T09:05:07.348Z,101975.92
2019-05-30T09:10:29.232Z,101967.94
2019-05-30T09:15:51.081Z,101976.37
2019-05-30T09:21:12.864Z,101970.08
2019-05-30T09:26:34.605Z,101970.84
2019-05-30T09:31:56.458Z,101956.98
2019-05-30T09:37:18.234Z,101949.56
2019-05-30T09:42:41.209Z,101949.88
2019-05-30T09:48:03.538Z,101953.67
2019-05-30T09:53:25.272Z,101948.66
2019-05-30T09:58:47.747Z,101958.03
2019-05-30T10:04:10.157Z,101948.34
2019-05-30T10:09:31.985Z,101946.62
2019-05-30T10:14:57.095Z,101940.41
2019-05-30T10:20:18.455Z,101942.63
2019-05-30T10:25:40.161Z,101939.31
2019-05-30T10:31:01.983Z,101934.34
2019-05-30T10:36:23.695Z,101933.11
2019-05-30T10:41:46.242Z,101923.52
2019-05-30T10:47:08.798Z,101930.69
2019-05-30T10:52:30.505Z,101915.73
2019-05-30T10:57:56.210Z,101911.70
2019-05-30T11:03:15.824Z,101908.95
2019-05-30T11:08:42.874Z,101906.09
2019-05-30T11:14:04.575Z,101888.52
2019-05-30T11:19:26.310Z,101887.92
2019-05-30T11:24:48.355Z,101876.47
2019-05-30T11:30:13.696Z,101878.55
2019-05-30T11:35:36.243Z,101872.34
2019-05-30T11:40:59.597Z,101872.73
2019-05-30T11:46:21.574Z,101884.62
2019-05-30T11:51:43.365Z,101865.09
2019-05-30T11:57:05.097Z,101870.89
2019-05-30T12:02:26.813Z,101864.13
2019-05-30T12:07:48.491Z,101855.44
2019-05-30T12:13:10.224Z,101843.94
2019-05-30T12:18:31.938Z,101845.57
2019-05-30T12:23:54.464Z,101837.69
2019-05-30T12:29:17.131Z,101839.64
2019-05-30T12:34:38.862Z,101830.34
2019-05-30T12:40:00.696Z,101826.42
2019-05-30T12:45:24.497Z,101810.17
2019-05-30T12:50:46.551Z,101803.16
2019-05-30T12:56:08.259Z,101812.25
2019-05-30T13:01:30.033Z,101817.00
2019-05-30T13:06:54.159Z,101805.03
2019-05-30T13:12:15.695Z,101799.14
2019-05-30T13:17:37.807Z,101793.61
2019-05-30T13:23:00.679Z,101800.55
2019-05-30T13:28:23.084Z,101804.39
2019-05-30T13:33:44.907Z,101791.91
2019-05-30T13:39:07.478Z,101796.53
2019-05-30T13:44:29.423Z,101787.03
2019-05-30T13:49:51.136Z,101786.49
2019-05-30T13:55:13.556Z,101780.34
2019-05-30T14:00:36.818Z,101776.33
2019-05-30T14:05:59.879Z,101773.77
2019-05-30T14:11:21.868Z,101773.20
2019-05-30T14:16:43.564Z,101765.70
2019-05-30T14:22:05.261Z,101767.89
2019-05-30T14:27:27.064Z,101756.63
2019-05-30T14:32:49.357Z,101763.27
2019-05-30T14:38:11.058Z,101761.78
2019-05-30T15:00:14.942Z,101748.84
2019-05-30T15:05:36.661Z,101745.45
2019-05-30T15:10:58.548Z,101747.19
2019-05-30T15:16:20.324Z,101743.12
2019-05-30T15:21:42.052Z,101747.58
2019-05-30T15:27:03.779Z,101734.81
2019-05-30T15:32:25.497Z,101741.45
2019-05-30T15:37:47.320Z,101750.17
2019-05-30T15:43:09.307Z,101750.62
2019-05-30T15:48:31.302Z,101735.97
2019-05-30T15:53:53.143Z,101731.73
2019-05-30T15:59:15.808Z,101722.39
2019-05-30T16:04:37.821Z,101717.79
2019-05-30T16:10:00.226Z,101718.11
2019-05-30T16:15:27.928Z,101709.77
2019-05-30T16:20:49.689Z,101702.30
2019-05-30T16:26:11.450Z,101712.16
2019-05-30T16:31:33.268Z,101712.95
2019-05-30T16:36:54.952Z,101703.49
2019-05-30T16:42:16.889Z,101705.08
2019-05-30T16:47:38.744Z,101701.59
2019-05-30T16:53:00.515Z,101697.92
2019-05-30T16:58:23.783Z,101692.84
2019-05-30T17:03:45.573Z,101695.21
2019-05-30T17:09:07.271Z,101689.66
2019-05-30T17:14:28.992Z,101701.53
2019-05-30T17:19:50.706Z,101700.83
2019-05-30T17:25:12.571Z,101685.25
2019-05-30T17:30:35.278Z,101685.53
2019-05-30T17:35:57.456Z,101694.23
2019-05-30T17:41:19.185Z,101688.56
2019-05-30T17:46:41.309Z,101687.36
2019-05-30T17:52:02.996Z,101675.34
2019-05-30T17:57:25.982Z,101678.03
2019-05-30T18:02:47.725Z,101681.19
2019-05-30T18:08:09.459Z,101679.77
2019-05-30T18:13:31.308Z,101686.91
2019-05-30T18:18:53.057Z,101680.38
2019-05-30T18:24:14.768Z,101689.91
2019-05-30T18:29:36.514Z,101687.81
2019-05-30T18:34:58.338Z,101688.26
2019-05-30T18:40:22.732Z,101696.84
2019-05-30T18:45:58.499Z,101690.55
2019-05-30T18:51:20.890Z,101702.91
2019-05-30T18:56:42.775Z,101707.11
2019-05-30T19:02:04.645Z,101702.86
2019-05-30T19:07:26.776Z,101710.16
2019-05-30T19:12:48.530Z,101710.62
2019-05-30T19:18:10.580Z,101719.98
2019-05-30T19:23:32.345Z,101720.20
2019-05-30T19:28:54.156Z,101719.66
2019-05-30T19:34:17.372Z,101709.50
2019-05-30T19:39:39.153Z,101711.60
2019-05-30T19:45:01.069Z,101714.14
2019-05-30T19:50:26.594Z,101711.39
2019-05-30T19:55:48.291Z,101716.02
2019-05-30T20:01:10.046Z,101709.50
2019-05-30T20:06:32.507Z,101703.10
2019-05-30T20:12:03.282Z,101707.63
2019-05-30T20:17:18.050Z,101707.66
2019-05-30T20:22:40.252Z,101703.83
2019-05-30T20:28:03.092Z,101702.97
2019-05-30T20:33:25.034Z,101711.73
2019-05-30T20:38:47.072Z,101702.94
2019-05-30T20:44:08.878Z,101700.06
2019-05-30T20:49:30.620Z,101700.25
2019-05-30T20:54:52.501Z,101706.38
2019-05-30T21:00:15.705Z,101693.39
2019-05-30T21:05:37.838Z,101698.94
2019-05-30T21:11:03.502Z,101699.19
2019-05-30T21:16:27.124Z,101692.20
2019-05-30T21:21:48.859Z,101693.78
2019-05-30T21:27:10.706Z,101693.19
2019-05-30T21:32:32.428Z,101693.45
2019-05-30T21:37:54.133Z,101694.70
2019-05-30T21:43:15.949Z,101691.32
2019-05-30T21:48:38.781Z,101696.32
2019-05-30T21:54:01.209Z,101695.30
2019-05-30T21:59:22.940Z,101696.97
2019-05-30T22:04:44.655Z,101694.66
2019-05-30T22:10:06.369Z,101701.75
2019-05-30T22:15:28.214Z,101707.72
2019-05-30T22:20:49.991Z,101701.52
2019-05-30T22:26:11.711Z,101704.11
2019-05-30T22:31:33.591Z,101702.05
2019-05-30T22:36:55.281Z,101690.91
2019-05-30T22:42:17.078Z,101690.63
2019-05-30T22:47:38.868Z,101691.06
2019-05-30T22:53:00.723Z,101690.77
2019-05-30T22:58:22.574Z,101691.48
2019-05-30T23:03:45.032Z,101688.75
2019-05-30T23:09:06.949Z,101682.33
2019-05-30T23:14:28.646Z,101685.13
2019-05-30T23:19:51.328Z,101679.03
2019-05-30T23:25:14.270Z,101679.01
2019-05-30T23:30:36.086Z,101680.65
2019-05-30T23:35:58.575Z,101673.47
2019-05-30T23:41:20.351Z,101671.63
2019-05-30T23:46:42.131Z,101676.47
2019-05-30T23:52:03.826Z,101684.86
2019-05-30T23:57:25.531Z,101681.40
